CheckWX is a tool to help pilots better visualize weather data.  It is not intended as a substitute for an official pre-flight weather briefing.

12:36:02 UTC

KJBR METAR
Jonesboro Municipal Airport
Jonesboro, Arkansas, USA
Current

43 mins ago

KJBR 221153Z AUTO 06019G25KT 7SM -RA OVC013 05/04 A3012 RMK AO2 SLP200 P0004 60008 70023 T00500044 10056 20050 58004
Observed
Feb-22 @ 11:53 UTC
Wind
  • 060° at 19 KTS
  • Gusting to KTS
Visibility
7 SM
Flight Rules
MVFR
Conditions
Light Rain
Cloud Levels
  • Overcast at 1,300' AGL
Temperature
C / 41°F
Dewpoint
C / 39°F
Humidity
93%
Altimeter
30.12" Hg
Pressure
1020 hPa
Current Rain
0.04"
Previous

59 mins ago

KJBR 221137Z AUTO 06015G20KT 7SM -RA FEW009 BKN016 OVC090 05/05 A3013 RMK AO2 P0004 T00500050
Observed
Feb-22 @ 11:37 UTC
Wind
  • 060° at 15 KTS
  • Gusting to KTS
Visibility
7 SM
Flight Rules
MVFR
Conditions
Light Rain
Cloud Levels
  • Few at 900' AGL
  • Broken at 1,600' AGL
  • Overcast at 9,000' AGL
Temperature
C / 41°F
Dewpoint
C / 41°F
Humidity
100%
Altimeter
30.13" Hg
Pressure
1020.32 hPa
Current Rain
0.04"
Previous

2 hours ago

KJBR 221053Z AUTO 05008KT 6SM -RA BR BKN015 BKN075 OVC095 05/05 A3017 RMK AO2 SLP218 P0002 T00500050
Observed
Feb-22 @ 10:53 UTC
Wind
  • 050° at 8 KTS
Visibility
6 SM
Flight Rules
MVFR
Conditions
Light Rain, Mist
Cloud Levels
  • Broken at 1,500' AGL
  • Broken at 7,500' AGL
  • Overcast at 9,500' AGL
Temperature
C / 41°F
Dewpoint
C / 41°F
Humidity
100%
Altimeter
30.17" Hg
Pressure
1021.8 hPa
Current Rain
0.02"